createdAt,value
2019-01-19T00:01:09.621Z,-1.60
2019-01-19T00:03:54.749Z,-1.60
2019-01-19T00:06:42.745Z,-1.50
2019-01-19T00:09:21.026Z,-1.50
2019-01-19T00:12:15.210Z,-1.40
2019-01-19T00:14:41.336Z,-1.40
2019-01-19T00:17:17.230Z,-1.50
2019-01-19T00:20:07.329Z,-1.50
2019-01-19T00:22:46.264Z,-1.50
2019-01-19T00:25:33.142Z,-1.50
2019-01-19T00:28:06.081Z,-1.60
2019-01-19T00:30:36.093Z,-1.70
2019-01-19T00:33:14.879Z,-1.60
2019-01-19T00:35:59.970Z,-1.60
2019-01-19T00:38:44.982Z,-1.80
2019-01-19T00:41:14.891Z,-1.90
2019-01-19T00:43:42.707Z,-2.00
2019-01-19T00:46:30.526Z,-1.90
2019-01-19T00:49:00.461Z,-2.00
2019-01-19T00:51:30.513Z,-2.00
2019-01-19T00:54:03.479Z,-1.90
2019-01-19T00:56:51.653Z,-2.00
2019-01-19T00:59:24.383Z,-2.10
2019-01-19T01:01:57.450Z,-2.20
2019-01-19T01:04:33.121Z,-2.30
2019-01-19T01:07:12.297Z,-2.30
2019-01-19T01:09:57.681Z,-2.40
2019-01-19T01:12:39.838Z,-2.60
2019-01-19T01:15:39.113Z,-2.60
2019-01-19T01:18:12.144Z,-2.60
2019-01-19T01:21:06.857Z,-2.50
2019-01-19T01:23:58.391Z,-2.50
2019-01-19T01:26:31.301Z,-2.40
2019-01-19T01:29:04.008Z,-2.40
2019-01-19T01:31:34.065Z,-2.40
2019-01-19T01:34:16.296Z,-2.60
2019-01-19T01:36:46.301Z,-2.60
2019-01-19T01:39:21.887Z,-2.70
2019-01-19T01:42:04.485Z,-2.70
2019-01-19T01:44:46.828Z,-2.60
2019-01-19T01:47:49.313Z,-2.70
2019-01-19T01:50:28.518Z,-2.70
2019-01-19T01:53:10.497Z,-2.80
2019-01-19T01:55:37.405Z,-2.70
2019-01-19T01:58:07.354Z,-2.70
2019-01-19T02:00:43.455Z,-2.70
2019-01-19T02:03:30.087Z,-2.70
2019-01-19T02:06:19.049Z,-2.70
2019-01-19T02:08:57.645Z,-2.80
2019-01-19T02:11:36.827Z,-2.90
2019-01-19T02:14:15.859Z,-2.70
2019-01-19T02:17:05.929Z,-2.70
2019-01-19T02:19:41.928Z,-2.60
2019-01-19T02:22:24.261Z,-2.70
2019-01-19T02:25:06.510Z,-2.80
2019-01-19T02:27:48.364Z,-2.70
2019-01-19T02:30:41.401Z,-2.60
2019-01-19T02:33:19.941Z,-2.70
2019-01-19T02:36:16.941Z,-2.70
2019-01-19T02:39:03.708Z,-2.80
2019-01-19T02:41:47.966Z,-2.80
2019-01-19T02:44:20.852Z,-2.70
2019-01-19T02:47:23.076Z,-2.80
2019-01-19T02:49:59.315Z,-2.80
2019-01-19T02:52:32.232Z,-2.90
2019-01-19T02:55:26.169Z,-2.90
2019-01-19T02:58:02.230Z,-2.90
2019-01-19T03:00:37.961Z,-2.90
2019-01-19T03:03:27.924Z,-2.90
2019-01-19T03:06:06.969Z,-3.00
2019-01-19T03:08:49.229Z,-3.00
2019-01-19T03:11:30.897Z,-3.00
2019-01-19T03:14:03.702Z,-3.00
2019-01-19T03:16:39.895Z,-3.10
2019-01-19T03:19:29.530Z,-3.30
2019-01-19T03:22:05.586Z,-3.40
2019-01-19T03:24:41.491Z,-3.60
2019-01-19T03:27:20.279Z,-3.60
2019-01-19T03:29:56.430Z,-3.60
2019-01-19T03:32:32.402Z,-3.60
2019-01-19T03:35:14.068Z,-3.50
2019-01-19T03:38:07.922Z,-3.40
2019-01-19T03:40:59.078Z,-3.40
2019-01-19T03:43:35.143Z,-3.30
2019-01-19T03:46:09.179Z,-3.20
2019-01-19T03:48:42.377Z,-3.20
2019-01-19T03:51:18.286Z,-3.30
2019-01-19T03:53:48.578Z,-3.30
2019-01-19T03:56:24.369Z,-3.30
2019-01-19T03:58:54.276Z,-3.30
2019-01-19T04:01:51.157Z,-3.40
2019-01-19T04:04:38.787Z,-3.40
2019-01-19T04:07:17.782Z,-3.50
2019-01-19T04:09:59.710Z,-3.30
2019-01-19T04:12:32.630Z,-3.20
2019-01-19T04:15:22.340Z,-3.30
2019-01-19T04:17:55.265Z,-3.30
2019-01-19T04:20:34.205Z,-3.30
2019-01-19T04:23:01.278Z,-3.50
2019-01-19T04:25:31.407Z,-3.50
2019-01-19T04:27:59.440Z,-3.60
2019-01-19T04:30:25.648Z,-3.60
2019-01-19T04:32:51.857Z,-3.80
2019-01-19T04:35:18.110Z,-3.80
2019-01-19T04:37:44.322Z,-3.90
2019-01-19T04:40:11.316Z,-4.10
2019-01-19T04:42:38.358Z,-4.00
2019-01-19T04:45:05.491Z,-4.00
2019-01-19T04:47:31.714Z,-4.00
2019-01-19T04:49:57.799Z,-3.80
2019-01-19T04:52:24.004Z,-3.80
2019-01-19T04:54:50.184Z,-3.80
2019-01-19T04:57:16.288Z,-4.00
2019-01-19T04:59:42.394Z,-3.90
2019-01-19T05:02:08.632Z,-4.00
2019-01-19T05:04:34.718Z,-4.10
2019-01-19T05:07:00.813Z,-4.20
2019-01-19T05:09:26.941Z,-4.20
2019-01-19T05:11:53.019Z,-4.30
2019-01-19T05:14:19.171Z,-4.40
2019-01-19T05:16:45.410Z,-4.40
2019-01-19T05:19:11.654Z,-4.60
2019-01-19T05:21:37.805Z,-4.50
2019-01-19T05:24:04.171Z,-4.60
2019-01-19T05:26:30.306Z,-4.70
2019-01-19T05:28:56.442Z,-4.60
2019-01-19T05:31:22.674Z,-4.50
2019-01-19T05:33:48.947Z,-4.50
2019-01-19T05:36:15.169Z,-4.40
2019-01-19T05:38:41.314Z,-4.50
2019-01-19T05:41:07.394Z,-4.40
2019-01-19T05:43:33.518Z,-4.30
2019-01-19T05:45:59.750Z,-4.20
2019-01-19T05:48:25.885Z,-4.10
2019-01-19T05:50:52.028Z,-4.10
2019-01-19T05:53:18.255Z,-4.10
2019-01-19T05:55:44.447Z,-4.20
2019-01-19T05:58:10.576Z,-4.20
2019-01-19T06:00:36.755Z,-4.10
2019-01-19T06:03:03.463Z,-4.10
2019-01-19T06:05:29.972Z,-4.20
2019-01-19T06:07:56.137Z,-4.00
2019-01-19T06:10:22.511Z,-4.00
2019-01-19T06:12:48.772Z,-4.00
2019-01-19T06:15:15.075Z,-3.90
2019-01-19T06:17:41.407Z,-4.00
2019-01-19T06:20:10.494Z,-4.10
2019-01-19T06:22:36.586Z,-3.90
2019-01-19T06:25:05.441Z,-4.00
2019-01-19T06:27:31.723Z,-4.10
2019-01-19T06:29:57.804Z,-4.30
2019-01-19T06:32:23.948Z,-4.30
2019-01-19T06:34:50.023Z,-4.30
2019-01-19T06:37:16.239Z,-4.40
2019-01-19T06:39:42.322Z,-4.40
2019-01-19T06:42:08.445Z,-4.50
2019-01-19T06:44:34.601Z,-4.50
2019-01-19T06:47:00.973Z,-4.50
2019-01-19T06:49:27.149Z,-4.60
2019-01-19T06:51:53.292Z,-4.50
2019-01-19T06:54:19.603Z,-4.50
2019-01-19T06:56:45.844Z,-4.70
2019-01-19T06:59:17.323Z,-4.80
2019-01-19T07:01:40.076Z,-4.70
2019-01-19T07:04:06.451Z,-4.60
2019-01-19T07:06:32.677Z,-4.70
2019-01-19T07:08:58.826Z,-4.70
2019-01-19T07:11:25.012Z,-4.90
2019-01-19T07:13:51.159Z,-4.90
2019-01-19T07:16:17.346Z,-5.00
2019-01-19T07:18:43.479Z,-4.90
2019-01-19T07:21:09.554Z,-4.80
2019-01-19T07:23:35.656Z,-4.70
2019-01-19T07:26:01.800Z,-4.70
2019-01-19T07:28:28.016Z,-4.70
2019-01-19T07:30:54.221Z,-4.70
2019-01-19T07:33:20.367Z,-4.70
2019-01-19T07:35:46.566Z,-4.60
2019-01-19T07:38:14.576Z,-4.60
2019-01-19T07:40:40.694Z,-4.70
2019-01-19T07:43:07.859Z,-4.60
2019-01-19T07:45:34.100Z,-4.60
2019-01-19T07:48:00.187Z,-4.70
2019-01-19T07:50:26.416Z,-4.70
2019-01-19T07:52:52.655Z,-4.80
2019-01-19T07:55:18.772Z,-4.90
2019-01-19T07:57:45.324Z,-4.90
2019-01-19T08:00:14.709Z,-4.90
2019-01-19T08:02:40.944Z,-4.70
2019-01-19T08:05:07.927Z,-4.50
2019-01-19T08:07:34.074Z,-4.60
2019-01-19T08:10:00.281Z,-4.50
2019-01-19T08:12:26.387Z,-4.30
2019-01-19T08:14:52.482Z,-4.20
2019-01-19T08:17:18.662Z,-4.00
2019-01-19T08:19:44.809Z,-3.80
2019-01-19T08:22:11.075Z,-3.70
2019-01-19T08:24:37.336Z,-3.40
2019-01-19T08:27:03.522Z,-3.40
2019-01-19T08:29:29.627Z,-3.10
2019-01-19T08:31:55.788Z,-2.90
2019-01-19T08:34:21.972Z,-2.80
2019-01-19T08:36:48.127Z,-2.80
2019-01-19T08:39:14.401Z,-2.60
2019-01-19T08:41:40.583Z,-2.50
2019-01-19T08:44:06.745Z,-2.50
2019-01-19T08:46:32.937Z,-2.10
2019-01-19T08:48:59.042Z,-1.90
2019-01-19T08:51:25.571Z,-1.70
2019-01-19T08:53:51.641Z,-1.50
2019-01-19T08:56:17.826Z,-1.10
2019-01-19T08:58:44.055Z,-1.10
2019-01-19T09:01:10.355Z,-1.00
2019-01-19T09:03:36.479Z,-1.10
2019-01-19T09:06:03.104Z,-0.90
2019-01-19T09:08:29.369Z,-0.80
2019-01-19T09:10:55.614Z,-0.70
2019-01-19T09:13:21.813Z,-0.70
2019-01-19T09:15:48.287Z,-0.60
2019-01-19T09:18:14.383Z,-0.70
2019-01-19T09:20:40.614Z,-0.40
2019-01-19T09:23:14.735Z,-0.20
2019-01-19T09:25:40.897Z,-0.10
2019-01-19T09:28:07.035Z,0.10
2019-01-19T09:30:33.246Z,0.40
2019-01-19T09:32:59.679Z,0.70
2019-01-19T09:35:25.823Z,1.10
2019-01-19T09:37:52.027Z,1.90
2019-01-19T09:40:18.401Z,3.70
2019-01-19T09:42:44.849Z,5.20
2019-01-19T09:45:16.051Z,6.60
2019-01-19T09:47:42.471Z,7.50
2019-01-19T09:50:14.998Z,7.90
2019-01-19T09:52:41.128Z,8.70
2019-01-19T09:55:07.919Z,9.70
2019-01-19T09:57:34.095Z,9.70
2019-01-19T10:00:00.376Z,10.20
2019-01-19T10:02:26.515Z,10.50
2019-01-19T10:04:52.653Z,10.80
2019-01-19T10:07:18.943Z,10.70
2019-01-19T10:09:45.055Z,10.90
2019-01-19T10:12:11.115Z,11.50
2019-01-19T10:14:37.252Z,11.70
2019-01-19T10:17:03.345Z,11.50
2019-01-19T10:19:29.507Z,11.60
2019-01-19T10:21:55.577Z,11.90
2019-01-19T10:24:21.719Z,12.10
2019-01-19T10:26:47.791Z,11.80
2019-01-19T10:29:14.599Z,11.30
2019-01-19T10:31:40.752Z,11.80
2019-01-19T10:34:07.156Z,12.20
2019-01-19T10:36:33.291Z,11.20
2019-01-19T10:38:59.414Z,11.20
2019-01-19T10:41:25.501Z,11.50
2019-01-19T10:43:51.765Z,11.40
2019-01-19T10:46:17.963Z,11.10
2019-01-19T10:48:44.215Z,11.00
2019-01-19T10:51:10.536Z,10.50
2019-01-19T10:53:36.842Z,10.50
2019-01-19T10:56:03.371Z,10.70
2019-01-19T10:58:30.633Z,10.60
2019-01-19T11:00:56.853Z,10.80
2019-01-19T11:03:22.920Z,11.10
2019-01-19T11:05:49.010Z,11.40
2019-01-19T11:08:15.332Z,11.40
2019-01-19T11:10:41.529Z,11.50
2019-01-19T11:13:07.630Z,12.00
2019-01-19T11:15:33.808Z,12.30
2019-01-19T11:18:00.022Z,12.70
2019-01-19T11:20:28.325Z,12.50
2019-01-19T11:22:55.020Z,13.00
2019-01-19T11:25:21.224Z,13.00
2019-01-19T11:27:47.410Z,13.40
2019-01-19T11:30:21.986Z,13.60
2019-01-19T11:32:48.294Z,13.90
2019-01-19T11:35:15.134Z,13.70
2019-01-19T11:37:41.543Z,14.00
2019-01-19T11:40:11.155Z,14.10
2019-01-19T11:42:37.270Z,14.40
2019-01-19T11:45:07.210Z,14.30
2019-01-19T11:47:33.343Z,15.30
2019-01-19T11:49:59.470Z,15.20
2019-01-19T11:52:25.798Z,15.60
2019-01-19T11:54:52.202Z,15.60
2019-01-19T11:57:18.330Z,15.30
2019-01-19T11:59:44.815Z,15.20
2019-01-19T12:02:10.912Z,15.20
2019-01-19T12:04:37.065Z,15.60
2019-01-19T12:07:03.353Z,16.10
2019-01-19T12:09:29.609Z,15.80
2019-01-19T12:11:55.822Z,15.70
2019-01-19T12:14:21.916Z,15.90
2019-01-19T12:16:48.064Z,16.40
2019-01-19T12:19:14.360Z,16.40
2019-01-19T12:21:40.597Z,16.30
2019-01-19T12:24:06.951Z,16.90
2019-01-19T12:26:33.305Z,17.30
2019-01-19T12:28:59.481Z,16.90
2019-01-19T12:31:25.756Z,16.10
2019-01-19T12:33:52.093Z,16.30
2019-01-19T12:36:18.331Z,17.20
2019-01-19T12:38:44.461Z,17.60
2019-01-19T12:41:10.630Z,17.70
2019-01-19T12:43:36.740Z,18.10
2019-01-19T12:46:03.289Z,18.10
2019-01-19T12:48:29.498Z,18.20
2019-01-19T12:50:55.966Z,18.90
2019-01-19T12:53:22.241Z,18.50
2019-01-19T12:55:48.377Z,17.90
2019-01-19T12:58:14.497Z,18.00
2019-01-19T13:00:40.860Z,18.70
2019-01-19T13:03:07.739Z,18.70
2019-01-19T13:05:40.870Z,18.90
2019-01-19T13:08:10.824Z,18.50
2019-01-19T13:10:43.606Z,18.70
2019-01-19T13:13:10.456Z,19.10
2019-01-19T13:15:43.222Z,17.80
2019-01-19T13:18:37.336Z,17.60
2019-01-19T13:21:36.599Z,17.40
2019-01-19T13:24:21.233Z,16.80
2019-01-19T13:27:05.961Z,15.40
2019-01-19T13:29:41.953Z,14.20
2019-01-19T13:32:19.609Z,12.90
2019-01-19T13:35:07.493Z,12.10
2019-01-19T13:37:58.782Z,11.20
2019-01-19T13:40:28.719Z,10.30
2019-01-19T13:43:07.266Z,9.60
2019-01-19T13:45:39.884Z,9.00
2019-01-19T13:48:33.853Z,8.40
2019-01-19T13:51:10.023Z,8.20
2019-01-19T13:53:59.659Z,7.60
2019-01-19T13:56:38.546Z,7.10
2019-01-19T13:59:29.241Z,6.90
2019-01-19T14:02:01.486Z,6.60
2019-01-19T14:04:59.151Z,6.40
2019-01-19T14:07:36.973Z,6.00
2019-01-19T14:10:13.023Z,6.20
2019-01-19T14:12:52.005Z,6.10
2019-01-19T14:15:21.955Z,5.90
2019-01-19T14:17:54.741Z,6.00
2019-01-19T14:20:24.662Z,5.80
2019-01-19T14:23:09.670Z,5.70
2019-01-19T14:25:48.641Z,5.40
2019-01-19T14:28:30.838Z,5.40
2019-01-19T14:31:13.184Z,5.40
2019-01-19T14:33:52.220Z,5.50
2019-01-19T14:36:28.132Z,5.40
2019-01-19T14:39:22.008Z,5.30
2019-01-19T14:42:03.675Z,5.30
2019-01-19T14:44:48.621Z,5.00
2019-01-19T14:47:18.594Z,4.70
2019-01-19T14:50:22.255Z,4.70
2019-01-19T14:53:15.347Z,4.70
2019-01-19T14:55:57.444Z,4.50
2019-01-19T14:58:31.091Z,4.40
2019-01-19T15:01:16.403Z,4.30
2019-01-19T15:03:58.589Z,4.20
2019-01-19T15:06:28.544Z,4.20
2019-01-19T15:09:04.033Z,4.20
2019-01-19T15:11:33.395Z,4.10
2019-01-19T15:14:09.366Z,4.10
2019-01-19T15:17:10.910Z,3.90
2019-01-19T15:19:57.506Z,3.80
2019-01-19T15:22:51.934Z,3.60
2019-01-19T15:25:36.854Z,3.50
2019-01-19T15:28:21.490Z,3.60
2019-01-19T15:31:03.065Z,3.60
2019-01-19T15:33:48.616Z,3.60
2019-01-19T15:36:30.479Z,3.50
2019-01-19T15:39:12.236Z,3.40
2019-01-19T15:42:02.161Z,3.20
2019-01-19T15:44:48.998Z,3.20
2019-01-19T15:47:35.793Z,3.20
2019-01-19T15:50:14.922Z,3.20
2019-01-19T15:52:59.949Z,3.10
2019-01-19T15:55:46.768Z,3.00
2019-01-19T15:58:38.326Z,2.90
2019-01-19T16:01:35.500Z,2.80
2019-01-19T16:04:05.487Z,2.80
2019-01-19T16:06:47.864Z,2.70
2019-01-19T16:09:29.788Z,2.80
2019-01-19T16:12:02.599Z,2.60
2019-01-19T16:15:01.230Z,2.60
2019-01-19T16:17:31.279Z,2.40
2019-01-19T16:20:01.191Z,2.40
2019-01-19T16:22:52.782Z,2.20
2019-01-19T16:25:37.939Z,2.20
2019-01-19T16:28:16.928Z,2.10
2019-01-19T16:31:06.698Z,2.00
2019-01-19T16:33:42.868Z,1.90
2019-01-19T16:36:32.597Z,1.90
2019-01-19T16:39:05.555Z,1.70
2019-01-19T16:42:06.203Z,1.60
2019-01-19T16:44:51.221Z,1.50
2019-01-19T16:47:33.315Z,1.40
2019-01-19T16:50:25.787Z,1.40
2019-01-19T16:52:55.697Z,1.40
2019-01-19T16:55:37.936Z,1.60
2019-01-19T16:58:17.735Z,1.50
2019-01-19T17:01:05.750Z,1.50
2019-01-19T17:03:53.906Z,1.40
2019-01-19T17:06:30.011Z,1.50
2019-01-19T17:09:32.664Z,1.50
2019-01-19T17:12:12.092Z,1.60
2019-01-19T17:14:47.847Z,1.40
2019-01-19T17:17:44.967Z,1.30
2019-01-19T17:20:17.738Z,1.30
2019-01-19T17:23:03.105Z,1.10
2019-01-19T17:25:56.073Z,1.20
2019-01-19T17:28:32.133Z,1.00
2019-01-19T17:31:02.042Z,1.00
2019-01-19T17:33:35.063Z,1.00
2019-01-19T17:36:24.750Z,0.90
2019-01-19T17:39:11.957Z,0.90
2019-01-19T17:41:54.214Z,0.90
2019-01-19T17:44:33.402Z,1.00
2019-01-19T17:47:06.351Z,1.00
2019-01-19T17:49:36.265Z,0.90
2019-01-19T17:52:06.230Z,0.80
2019-01-19T17:54:42.548Z,0.80
2019-01-19T17:57:12.572Z,0.80
2019-01-19T17:59:51.373Z,0.70
2019-01-19T18:02:36.481Z,0.70
2019-01-19T18:05:21.868Z,0.70
2019-01-19T18:08:20.865Z,0.70
2019-01-19T18:10:59.949Z,0.70
2019-01-19T18:13:29.941Z,0.60
2019-01-19T18:16:09.180Z,0.60
2019-01-19T18:18:42.317Z,0.50
2019-01-19T18:21:17.675Z,0.50
2019-01-19T18:24:13.888Z,0.50
2019-01-19T18:27:03.697Z,0.50
2019-01-19T18:29:36.869Z,0.40
2019-01-19T18:32:18.450Z,0.50
2019-01-19T18:35:06.700Z,0.40
2019-01-19T18:37:36.858Z,0.40
2019-01-19T18:40:21.487Z,0.40
2019-01-19T18:42:51.437Z,0.40
2019-01-19T18:45:38.175Z,0.40
2019-01-19T18:48:34.149Z,0.40
2019-01-19T18:51:16.013Z,0.40
2019-01-19T18:53:51.659Z,0.30
2019-01-19T18:56:41.463Z,0.20
2019-01-19T18:59:20.791Z,0.10
2019-01-19T19:02:15.487Z,0.10
2019-01-19T19:04:57.233Z,0.10
2019-01-19T19:07:38.687Z,0.00
2019-01-19T19:10:33.227Z,-0.10
2019-01-19T19:13:18.566Z,-0.10
2019-01-19T19:15:56.431Z,0.00
2019-01-19T19:18:31.814Z,0.00
2019-01-19T19:21:17.240Z,0.00
2019-01-19T19:23:50.261Z,-0.10
2019-01-19T19:26:37.100Z,-0.10
2019-01-19T19:29:22.557Z,0.00
2019-01-19T19:32:01.455Z,-0.10
2019-01-19T19:34:48.268Z,-0.20
2019-01-19T19:37:29.878Z,-0.30
2019-01-19T19:40:09.677Z,-0.50
2019-01-19T19:42:43.220Z,-0.50
2019-01-19T19:45:31.620Z,-0.50
2019-01-19T19:48:01.678Z,-0.40
2019-01-19T19:51:04.144Z,-0.50
2019-01-19T19:53:30.339Z,-0.50
2019-01-19T19:55:56.212Z,-0.60
2019-01-19T19:58:22.411Z,-0.60
2019-01-19T20:00:49.998Z,-0.70
2019-01-19T20:03:16.123Z,-0.70
2019-01-19T20:05:42.534Z,-0.70
2019-01-19T20:08:08.888Z,-0.70
2019-01-19T20:10:35.271Z,-0.70
2019-01-19T20:13:01.417Z,-0.70
2019-01-19T20:15:27.659Z,-0.80
2019-01-19T20:17:53.947Z,-0.70
2019-01-19T20:20:20.328Z,-0.70
2019-01-19T20:22:46.650Z,-0.80
2019-01-19T20:25:12.887Z,-0.70
2019-01-19T20:27:39.097Z,-0.70
2019-01-19T20:30:11.993Z,-0.70
2019-01-19T20:32:38.399Z,-0.70
2019-01-19T20:35:06.351Z,-0.70
2019-01-19T20:37:32.620Z,-0.70
2019-01-19T20:39:58.932Z,-0.60
2019-01-19T20:42:25.310Z,-0.60
2019-01-19T20:44:51.574Z,-0.60
2019-01-19T20:47:17.821Z,-0.70
2019-01-19T20:49:44.318Z,-0.70
2019-01-19T20:52:10.754Z,-0.80
2019-01-19T20:54:37.019Z,-0.70
2019-01-19T20:57:03.483Z,-0.80
2019-01-19T20:59:32.617Z,-0.80
2019-01-19T21:01:58.943Z,-0.80
2019-01-19T21:04:25.313Z,-0.70
2019-01-19T21:06:51.665Z,-0.90
2019-01-19T21:09:17.982Z,-0.80
2019-01-19T21:11:44.313Z,-0.90
2019-01-19T21:14:10.611Z,-0.90
2019-01-19T21:16:36.822Z,-0.90
2019-01-19T21:19:03.302Z,-1.00
2019-01-19T21:21:29.494Z,-1.00
2019-01-19T21:23:55.736Z,-1.00
2019-01-19T21:26:21.931Z,-1.00
2019-01-19T21:28:48.176Z,-1.10
2019-01-19T21:31:14.426Z,-1.00
2019-01-19T21:33:40.632Z,-1.10
2019-01-19T21:36:07.083Z,-1.10
2019-01-19T21:38:33.461Z,-1.10
2019-01-19T21:40:59.755Z,-1.20
2019-01-19T21:43:26.171Z,-1.20
2019-01-19T21:45:52.284Z,-1.20
2019-01-19T21:48:18.573Z,-1.30
2019-01-19T21:50:44.819Z,-1.20
2019-01-19T21:53:11.126Z,-1.30
2019-01-19T21:55:37.375Z,-1.30
2019-01-19T21:58:03.594Z,-1.30
2019-01-19T22:00:29.977Z,-1.40
2019-01-19T22:02:56.144Z,-1.30
2019-01-19T22:05:22.247Z,-1.40
2019-01-19T22:07:48.345Z,-1.40
2019-01-19T22:10:17.133Z,-1.30
2019-01-19T22:12:43.358Z,-1.40
2019-01-19T22:15:12.204Z,-1.40
2019-01-19T22:17:39.553Z,-1.40
2019-01-19T22:20:09.352Z,-1.50
2019-01-19T22:22:35.442Z,-1.40
2019-01-19T22:25:01.907Z,-1.40
2019-01-19T22:27:28.543Z,-1.40
2019-01-19T22:29:54.691Z,-1.50
2019-01-19T22:32:20.758Z,-1.50
2019-01-19T22:34:46.932Z,-1.50
2019-01-19T22:37:13.126Z,-1.60
2019-01-19T22:39:39.253Z,-1.60
2019-01-19T22:42:05.422Z,-1.60
2019-01-19T22:44:31.995Z,-1.70
2019-01-19T22:46:58.299Z,-1.70
2019-01-19T22:49:24.399Z,-1.60
2019-01-19T22:51:50.499Z,-1.60
2019-01-19T22:54:16.595Z,-1.60
2019-01-19T22:56:42.746Z,-1.70
2019-01-19T22:59:08.974Z,-1.70
2019-01-19T23:01:36.252Z,-1.70
2019-01-19T23:04:02.708Z,-1.70
2019-01-19T23:06:28.927Z,-1.70
2019-01-19T23:08:55.235Z,-1.80
2019-01-19T23:11:21.504Z,-1.70
2019-01-19T23:13:47.598Z,-1.80
2019-01-19T23:16:13.684Z,-1.90
2019-01-19T23:18:39.774Z,-1.90
2019-01-19T23:21:06.111Z,-1.90
2019-01-19T23:23:32.374Z,-1.90
2019-01-19T23:26:00.505Z,-1.90
2019-01-19T23:28:26.663Z,-2.00
2019-01-19T23:30:52.964Z,-2.00
2019-01-19T23:33:19.101Z,-2.00
2019-01-19T23:35:45.280Z,-2.00
2019-01-19T23:38:11.510Z,-2.10
2019-01-19T23:40:37.766Z,-2.10
2019-01-19T23:43:03.892Z,-2.00
2019-01-19T23:45:30.247Z,-2.00
2019-01-19T23:47:56.487Z,-2.00
2019-01-19T23:50:22.735Z,-2.00
2019-01-19T23:52:49.009Z,-2.10
2019-01-19T23:55:15.193Z,-2.10
2019-01-19T23:57:41.418Z,-2.10
